Time;durP1;ratioP1;P1;durP2;ratioP2;P2;SDS_P1;SDS_P2;PMS_P1;PMS_P2;Temp;Humidity;BMP_temperature;BMP_pressure;BME280_temperature;BME280_humidity;BME280_pressure;Samples;Min_cycle;Max_cycle;Signal;HPM_P1;HPM_P2
2023/03/22 00:02:00;;;;;;;0.20;0.20;;;8.70;99.90;;;;;;5049876;28;20487;-75
2023/03/22 00:04:26;;;;;;;0.20;0.20;;;8.70;99.90;;;;;;5049950;28;20779;-75
2023/03/22 00:06:52;;;;;;;0.20;0.20;;;8.70;99.90;;;;;;5082919;28;20446;-75
2023/03/22 00:09:17;;;;;;;0.20;0.20;;;8.70;99.90;;;;;;5048600;28;20182;-75
2023/03/22 00:11:43;;;;;;;0.20;0.20;;;8.70;99.90;;;;;;5041420;28;20263;-75
2023/03/22 00:14:08;;;;;;;0.20;0.20;;;8.60;99.90;;;;;;5033377;28;20201;-74
2023/03/22 00:16:34;;;;;;;0.20;0.20;;;8.60;99.90;;;;;;5042362;28;20238;-75
2023/03/22 00:18:59;;;;;;;0.20;0.20;;;8.60;99.90;;;;;;5042735;28;20227;-75
2023/03/22 00:21:25;;;;;;;0.20;0.20;;;8.50;99.90;;;;;;5037774;28;20178;-75
2023/03/22 00:23:50;;;;;;;0.20;0.20;;;8.50;99.90;;;;;;5038382;28;20200;-75
2023/03/22 00:26:16;;;;;;;0.20;0.20;;;8.50;99.90;;;;;;5032978;28;20443;-75
2023/03/22 00:28:42;;;;;;;0.20;0.20;;;8.50;99.90;;;;;;5038031;28;20194;-75
2023/03/22 00:31:09;;;;;;;0.20;0.20;;;8.50;99.90;;;;;;5066664;28;20186;-78
2023/03/22 00:33:35;;;;;;;0.20;0.20;;;8.50;99.90;;;;;;5033303;28;20474;-77
2023/03/22 00:36:03;;;;;;;0.20;0.20;;;8.50;99.90;;;;;;5029794;28;20453;-75
2023/03/22 00:38:38;;;;;;;0.20;0.20;;;8.50;99.90;;;;;;5046256;28;20440;-75
2023/03/22 00:41:14;;;;;;;0.20;0.20;;;8.50;99.90;;;;;;5030837;28;20969;-75
2023/03/22 00:43:41;;;;;;;0.20;0.20;;;8.50;99.90;;;;;;5040287;28;20984;-75
2023/03/22 00:46:07;;;;;;;0.20;0.20;;;8.50;99.90;;;;;;5040858;28;20449;-78
2023/03/22 00:48:32;;;;;;;0.20;0.20;;;8.50;99.90;;;;;;5042595;28;20464;-75
2023/03/22 00:50:58;;;;;;;0.20;0.20;;;8.50;99.90;;;;;;5040940;28;20494;-75
2023/03/22 00:53:24;;;;;;;0.20;0.20;;;8.50;99.90;;;;;;5039722;28;20608;-75
2023/03/22 00:55:50;;;;;;;0.20;0.20;;;8.50;99.90;;;;;;5044291;28;20222;-78
2023/03/22 00:58:16;;;;;;;0.20;0.20;;;8.50;99.90;;;;;;5042483;28;20538;-78
2023/03/22 01:00:43;;;;;;;0.20;0.20;;;8.50;99.90;;;;;;5047500;28;20643;-75
2023/03/22 01:03:08;;;;;;;0.20;0.20;;;8.40;99.90;;;;;;5049260;28;20240;-75
2023/03/22 01:05:34;;;;;;;0.20;0.20;;;8.40;99.90;;;;;;5047243;28;20430;-75
2023/03/22 01:08:07;;;;;;;0.13;0.13;;;8.40;99.90;;;;;;5039365;28;20283;-75
2023/03/22 01:10:40;;;;;;;0.20;0.20;;;8.40;99.90;;;;;;5033347;28;20438;-75
2023/03/22 01:13:07;;;;;;;0.20;0.20;;;8.30;99.90;;;;;;5049268;28;20481;-77
2023/03/22 01:15:32;;;;;;;0.20;0.20;;;8.30;99.90;;;;;;5045158;28;20435;-78
2023/03/22 01:17:58;;;;;;;0.20;0.20;;;8.20;99.90;;;;;;5042012;28;20466;-78
2023/03/22 01:20:24;;;;;;;0.20;0.20;;;8.30;99.90;;;;;;5042496;28;20206;-75
2023/03/22 01:22:50;;;;;;;0.20;0.20;;;8.20;99.90;;;;;;5042869;28;20215;-77
2023/03/22 01:25:16;;;;;;;0.20;0.20;;;8.20;99.90;;;;;;5038509;28;20183;-76
2023/03/22 01:27:42;;;;;;;0.20;0.20;;;8.20;99.90;;;;;;5040073;28;20534;-76
2023/03/22 01:30:08;;;;;;;0.20;0.20;;;8.20;99.90;;;;;;5045845;28;20493;-76
2023/03/22 01:32:35;;;;;;;0.20;0.20;;;8.20;99.90;;;;;;5044661;28;20195;-76
2023/03/22 01:35:00;;;;;;;0.30;0.30;;;8.20;99.90;;;;;;5047954;28;20945;-76
2023/03/22 01:37:26;;;;;;;0.20;0.20;;;8.10;99.90;;;;;;5043122;28;20468;-76
2023/03/22 01:39:53;;;;;;;0.20;0.20;;;8.10;99.90;;;;;;5059410;28;20221;-76
2023/03/22 01:42:21;;;;;;;0.20;0.20;;;8.10;99.90;;;;;;5043130;28;20217;-76
2023/03/22 01:45:12;;;;;;;0.20;0.20;;;8.10;99.90;;;;;;5044016;28;20460;-77
2023/03/22 01:47:46;;;;;;;0.20;0.20;;;8.10;99.90;;;;;;5037869;28;20468;-76
2023/03/22 01:50:12;;;;;;;0.20;0.20;;;8.10;99.90;;;;;;5048064;28;20811;-76
2023/03/22 01:52:39;;;;;;;0.20;0.20;;;8.10;99.90;;;;;;5040566;28;20437;-76
2023/03/22 01:55:08;;;;;;;0.30;0.30;;;8.00;99.90;;;;;;5049260;28;20448;-76
2023/03/22 01:57:36;;;;;;;0.20;0.20;;;8.00;99.90;;;;;;5041076;28;20943;-76
2023/03/22 02:00:09;;;;;;;0.20;0.20;;;8.00;99.90;;;;;;5041365;28;20438;-76
2023/03/22 02:02:35;;;;;;;0.20;0.20;;;8.00;99.90;;;;;;5048845;28;20538;-76
2023/03/22 02:05:03;;;;;;;0.20;0.20;;;8.00;99.90;;;;;;5039466;28;20552;-76
2023/03/22 02:07:30;;;;;;;0.20;0.20;;;8.00;99.90;;;;;;5050155;28;20456;-76
2023/03/22 02:09:57;;;;;;;0.20;0.20;;;8.00;99.90;;;;;;5042905;28;20437;-76
2023/03/22 02:12:53;;;;;;;0.20;0.20;;;8.00;99.90;;;;;;5048804;28;20540;-76
2023/03/22 02:15:22;;;;;;;0.20;0.20;;;8.00;99.90;;;;;;5074939;28;20445;-76
2023/03/22 02:18:17;;;;;;;0.20;0.20;;;8.00;99.90;;;;;;5047858;28;21188;-76
2023/03/22 02:21:05;;;;;;;0.20;0.20;;;8.00;99.90;;;;;;5045662;28;20544;-76
2023/03/22 02:24:15;;;;;;;0.20;0.20;;;8.10;99.90;;;;;;5051204;28;20477;-76
2023/03/22 02:27:05;;;;;;;0.20;0.20;;;8.10;99.90;;;;;;5041323;28;20437;-76
2023/03/22 02:29:45;;;;;;;0.20;0.20;;;8.10;99.90;;;;;;5045588;28;20586;-76
2023/03/22 02:32:45;;;;;;;0.20;0.20;;;8.00;99.90;;;;;;5043579;28;20572;-76
2023/03/22 02:35:29;;;;;;;0.20;0.20;;;8.00;99.90;;;;;;5051322;28;20448;-76
2023/03/22 02:38:03;;;;;;;0.20;0.20;;;8.00;99.90;;;;;;5048797;28;20449;-76
2023/03/22 02:41:00;;;;;;;0.20;0.20;;;8.00;99.90;;;;;;5033642;28;20444;-76
2023/03/22 02:43:37;;;;;;;0.20;0.20;;;8.00;99.90;;;;;;5043048;28;20556;-77
2023/03/22 02:46:12;;;;;;;0.20;0.20;;;8.00;99.90;;;;;;5039923;28;20448;-76
2023/03/22 02:49:12;;;;;;;0.20;0.20;;;8.00;99.90;;;;;;5052583;28;20458;-77
2023/03/22 02:52:16;;;;;;;0.20;0.20;;;8.10;99.90;;;;;;5039006;28;20449;-77
2023/03/22 02:54:49;;;;;;;0.20;0.20;;;8.10;99.90;;;;;;5055761;28;20957;-76
2023/03/22 02:57:46;;;;;;;0.20;0.20;;;8.10;99.90;;;;;;5041956;28;20468;-76
2023/03/22 03:00:14;;;;;;;0.20;0.20;;;8.10;99.90;;;;;;5047134;28;20451;-76
2023/03/22 03:02:48;;;;;;;0.20;0.20;;;8.20;99.90;;;;;;5051681;28;20500;-76
2023/03/22 03:05:16;;;;;;;0.20;0.20;;;8.20;99.90;;;;;;5033163;28;20446;-76
2023/03/22 03:07:45;;;;;;;0.20;0.20;;;8.20;99.90;;;;;;5050989;28;20498;-76
2023/03/22 03:10:13;;;;;;;0.20;0.20;;;8.20;99.90;;;;;;5037515;28;20430;-76
2023/03/22 03:12:39;;;;;;;0.20;0.20;;;8.20;99.90;;;;;;5044036;28;20583;-77
2023/03/22 03:15:25;;;;;;;0.20;0.20;;;8.20;99.90;;;;;;5045883;28;20437;-76
2023/03/22 03:18:03;;;;;;;0.20;0.20;;;8.20;99.90;;;;;;5039387;28;20253;-76
2023/03/22 03:20:37;;;;;;;0.20;0.20;;;8.20;99.90;;;;;;5063700;28;20467;-74
2023/03/22 03:23:24;;;;;;;0.20;0.20;;;8.20;99.90;;;;;;5035893;28;20571;-76
2023/03/22 03:26:05;;;;;;;0.20;0.20;;;8.20;99.90;;;;;;5049497;28;20449;-76
2023/03/22 03:28:37;;;;;;;0.20;0.20;;;8.20;99.90;;;;;;5046368;28;20771;-76
2023/03/22 03:31:27;;;;;;;0.20;0.20;;;8.30;99.90;;;;;;5042483;28;20453;-76
2023/03/22 03:34:09;;;;;;;0.20;0.20;;;8.20;99.90;;;;;;5049952;28;20524;-76
2023/03/22 03:36:38;;;;;;;0.20;0.20;;;8.20;99.90;;;;;;5034304;28;20541;-76
2023/03/22 03:39:09;;;;;;;0.20;0.20;;;8.20;99.90;;;;;;5044567;28;20445;-76
2023/03/22 03:41:35;;;;;;;0.20;0.20;;;8.30;99.90;;;;;;5041583;28;20445;-77
2023/03/22 03:44:02;;;;;;;0.20;0.20;;;8.30;99.90;;;;;;5052252;28;20448;-76
2023/03/22 03:46:28;;;;;;;0.20;0.20;;;8.30;99.90;;;;;;5042397;28;20441;-76
2023/03/22 03:48:56;;;;;;;0.20;0.20;;;8.30;99.90;;;;;;5035534;28;20449;-76
2023/03/22 03:51:22;;;;;;;0.20;0.20;;;8.30;99.90;;;;;;5054928;28;20496;-76
2023/03/22 03:53:48;;;;;;;0.20;0.20;;;8.30;99.90;;;;;;5045476;28;20844;-76
2023/03/22 03:56:13;;;;;;;0.20;0.20;;;8.30;99.90;;;;;;5044180;28;20186;-76
2023/03/22 03:58:39;;;;;;;0.20;0.20;;;8.30;99.90;;;;;;5038733;28;21905;-76
2023/03/22 04:01:05;;;;;;;0.20;0.20;;;8.30;99.90;;;;;;5049822;28;20545;-76
2023/03/22 04:03:31;;;;;;;0.30;0.30;;;8.30;99.90;;;;;;5041107;28;20488;-76
2023/03/22 04:05:58;;;;;;;0.20;0.20;;;8.30;99.90;;;;;;5047394;28;20324;-76
2023/03/22 04:08:24;;;;;;;0.20;0.20;;;8.30;99.90;;;;;;5039507;28;20780;-76
2023/03/22 04:10:50;;;;;;;0.20;0.20;;;8.30;99.90;;;;;;5046487;28;20477;-77
2023/03/22 04:13:16;;;;;;;0.20;0.20;;;8.40;99.90;;;;;;5046139;28;20433;-76
2023/03/22 04:15:42;;;;;;;0.20;0.20;;;8.40;99.90;;;;;;5048922;28;20480;-76
2023/03/22 04:18:10;;;;;;;0.20;0.20;;;8.40;99.90;;;;;;5048074;28;20933;-76
2023/03/22 04:20:37;;;;;;;0.20;0.20;;;8.40;99.90;;;;;;5044373;28;20197;-76
2023/03/22 04:23:03;;;;;;;0.20;0.20;;;8.40;99.90;;;;;;5040136;28;20937;-76
2023/03/22 04:25:28;;;;;;;0.20;0.20;;;8.40;99.90;;;;;;5044590;28;20450;-75
2023/03/22 04:27:54;;;;;;;0.20;0.20;;;8.40;99.90;;;;;;5037296;28;20198;-77
2023/03/22 04:30:21;;;;;;;0.20;0.20;;;8.40;99.90;;;;;;5032229;28;20804;-76
2023/03/22 04:32:47;;;;;;;0.20;0.20;;;8.40;99.90;;;;;;5031359;28;20691;-76
2023/03/22 04:35:13;;;;;;;0.20;0.20;;;8.40;99.90;;;;;;5049127;28;20429;-76
2023/03/22 04:37:38;;;;;;;0.20;0.20;;;8.40;99.90;;;;;;5044094;28;20457;-76
2023/03/22 04:40:06;;;;;;;0.20;0.20;;;8.40;99.90;;;;;;5042390;28;20196;-77
2023/03/22 04:42:33;;;;;;;0.20;0.20;;;8.40;99.90;;;;;;5040470;28;20663;-76
2023/03/22 04:44:59;;;;;;;0.20;0.20;;;8.40;99.90;;;;;;5041896;28;20446;-77
2023/03/22 04:47:24;;;;;;;0.20;0.20;;;8.40;99.90;;;;;;5048267;28;20476;-77
2023/03/22 04:49:50;;;;;;;0.20;0.20;;;8.40;99.90;;;;;;5036949;28;20545;-76
2023/03/22 04:52:16;;;;;;;0.20;0.20;;;8.40;99.90;;;;;;5031041;28;20279;-76
2023/03/22 04:54:41;;;;;;;0.20;0.20;;;8.40;99.90;;;;;;5054862;28;20198;-76
2023/03/22 04:57:07;;;;;;;0.20;0.20;;;8.50;99.90;;;;;;5032274;28;20523;-76
2023/03/22 04:59:32;;;;;;;0.20;0.20;;;8.40;99.90;;;;;;5037379;28;20192;-76
2023/03/22 05:01:58;;;;;;;0.20;0.20;;;8.40;99.90;;;;;;5036465;28;20675;-76
2023/03/22 05:04:24;;;;;;;0.20;0.20;;;8.40;99.90;;;;;;5042766;28;20194;-76
2023/03/22 05:06:50;;;;;;;0.20;0.20;;;8.40;99.90;;;;;;5075045;28;20870;-76
2023/03/22 05:09:15;;;;;;;0.20;0.20;;;8.50;99.90;;;;;;5040352;28;20476;-76
2023/03/22 05:11:41;;;;;;;0.20;0.20;;;8.50;99.90;;;;;;5043885;28;20262;-76
2023/03/22 05:14:08;;;;;;;0.20;0.20;;;8.40;99.90;;;;;;5038737;28;20191;-76
2023/03/22 05:16:34;;;;;;;0.20;0.20;;;8.40;99.90;;;;;;5075509;28;20433;-76
2023/03/22 05:19:01;;;;;;;0.20;0.20;;;8.40;99.90;;;;;;5043796;28;20485;-77
2023/03/22 05:21:28;;;;;;;0.20;0.20;;;8.40;99.90;;;;;;5037933;28;20438;-76
2023/03/22 05:23:57;;;;;;;0.20;0.20;;;8.50;99.90;;;;;;5040131;28;20887;-77
2023/03/22 05:26:25;;;;;;;0.20;0.20;;;8.50;99.90;;;;;;5043911;28;20449;-76
2023/03/22 05:28:51;;;;;;;0.20;0.20;;;8.50;99.90;;;;;;5041741;28;20460;-76
2023/03/22 05:31:20;;;;;;;0.20;0.20;;;8.50;99.90;;;;;;5050024;28;20449;-76
2023/03/22 05:33:49;;;;;;;0.20;0.20;;;8.50;99.90;;;;;;5045260;28;20974;-76
2023/03/22 05:36:19;;;;;;;0.20;0.20;;;8.50;99.90;;;;;;5036538;28;20482;-77
2023/03/22 05:38:45;;;;;;;0.20;0.20;;;8.50;99.90;;;;;;5030518;28;20850;-76
2023/03/22 05:41:12;;;;;;;0.20;0.20;;;8.50;99.90;;;;;;5034988;28;20529;-76
2023/03/22 05:43:37;;;;;;;0.20;0.20;;;8.50;99.90;;;;;;5038476;28;20239;-76
2023/03/22 05:46:07;;;;;;;0.20;0.20;;;8.50;99.90;;;;;;5045488;28;20937;-77
2023/03/22 05:48:33;;;;;;;0.20;0.20;;;8.60;99.90;;;;;;5043896;28;20183;-77
2023/03/22 05:50:59;;;;;;;0.20;0.20;;;8.60;99.90;;;;;;5045596;28;20442;-76
2023/03/22 05:53:24;;;;;;;0.20;0.20;;;8.60;99.90;;;;;;5048280;28;20455;-76
2023/03/22 05:55:51;;;;;;;0.20;0.20;;;8.60;99.90;;;;;;5043493;28;20195;-76
2023/03/22 05:58:17;;;;;;;0.20;0.20;;;8.60;99.90;;;;;;5049693;28;20235;-76
2023/03/22 06:00:43;;;;;;;0.20;0.20;;;8.70;99.90;;;;;;5044287;28;20441;-76
2023/03/22 06:03:09;;;;;;;0.20;0.20;;;8.60;99.90;;;;;;5041849;28;20580;-77
2023/03/22 06:05:36;;;;;;;0.20;0.20;;;8.70;99.90;;;;;;5044655;28;20532;-76
2023/03/22 06:08:02;;;;;;;0.20;0.20;;;8.70;99.90;;;;;;5047403;28;20277;-76
2023/03/22 06:10:27;;;;;;;0.20;0.20;;;8.70;99.90;;;;;;5045707;28;20483;-76
2023/03/22 06:12:53;;;;;;;0.20;0.20;;;8.70;99.90;;;;;;5036511;28;20809;-76
2023/03/22 06:15:19;;;;;;;0.20;0.20;;;8.70;99.90;;;;;;5047619;28;20609;-76
2023/03/22 06:17:45;;;;;;;0.20;0.20;;;8.70;99.90;;;;;;5033282;28;20196;-76
2023/03/22 06:20:12;;;;;;;0.20;0.20;;;8.80;99.90;;;;;;5041208;28;20647;-76
2023/03/22 06:22:38;;;;;;;0.20;0.20;;;8.80;99.90;;;;;;5042583;28;20479;-76
2023/03/22 06:25:05;;;;;;;0.20;0.20;;;;;;;;;;5044732;28;21122;-76
2023/03/22 06:27:31;;;;;;;0.20;0.20;;;8.50;99.90;;;;;;5036479;28;20441;-76
2023/03/22 06:29:56;;;;;;;0.20;0.20;;;8.80;99.90;;;;;;5039105;28;20430;-77
2023/03/22 06:32:22;;;;;;;0.20;0.20;;;8.80;99.90;;;;;;5044923;28;20187;-76
2023/03/22 06:34:51;;;;;;;0.20;0.20;;;8.90;99.90;;;;;;5045678;28;20265;-76
2023/03/22 06:37:17;;;;;;;0.20;0.20;;;8.90;99.90;;;;;;5038414;28;20445;-76
2023/03/22 06:39:43;;;;;;;0.20;0.20;;;8.90;99.90;;;;;;5037425;28;20556;-76
2023/03/22 06:42:08;;;;;;;0.20;0.20;;;9.00;99.90;;;;;;5045911;28;20203;-77
2023/03/22 06:44:34;;;;;;;0.20;0.20;;;9.00;99.90;;;;;;5033482;28;20278;-76
2023/03/22 06:47:00;;;;;;;0.20;0.20;;;9.00;99.90;;;;;;5034997;28;20194;-77
2023/03/22 06:49:26;;;;;;;0.20;0.20;;;9.00;99.90;;;;;;5051171;28;20198;-76
2023/03/22 06:51:52;;;;;;;0.20;0.20;;;9.00;99.90;;;;;;5049368;28;20198;-77
2023/03/22 06:54:18;;;;;;;0.20;0.20;;;9.00;99.90;;;;;;5039647;28;20438;-76
2023/03/22 06:56:43;;;;;;;0.20;0.20;;;9.10;99.90;;;;;;5044060;28;20193;-76
2023/03/22 06:59:09;;;;;;;0.20;0.20;;;9.10;99.90;;;;;;5049494;28;20666;-76
2023/03/22 07:01:35;;;;;;;0.20;0.20;;;9.10;99.90;;;;;;5041454;28;20241;-76
2023/03/22 07:04:01;;;;;;;0.20;0.20;;;9.20;99.90;;;;;;5044964;28;20215;-76
2023/03/22 07:06:26;;;;;;;0.20;0.20;;;9.20;99.90;;;;;;5045698;28;20199;-76
2023/03/22 07:08:52;;;;;;;0.20;0.20;;;9.20;99.90;;;;;;5044562;28;20202;-76
2023/03/22 07:11:19;;;;;;;0.20;0.20;;;9.20;99.90;;;;;;5053765;28;20195;-76
2023/03/22 07:13:44;;;;;;;0.20;0.20;;;9.20;99.90;;;;;;5044363;28;20188;-76
2023/03/22 07:16:10;;;;;;;0.20;0.20;;;9.20;99.90;;;;;;5036135;28;20514;-76
2023/03/22 07:18:36;;;;;;;0.20;0.20;;;9.30;99.90;;;;;;5032848;28;20219;-75
2023/03/22 07:21:02;;;;;;;0.20;0.20;;;9.30;99.90;;;;;;5045554;28;20439;-76
2023/03/22 07:23:27;;;;;;;0.20;0.20;;;9.30;99.90;;;;;;5037914;28;20226;-75
2023/03/22 07:25:54;;;;;;;0.10;0.10;;;9.30;99.90;;;;;;5043788;28;20213;-76
2023/03/22 07:28:20;;;;;;;0.20;0.20;;;9.40;99.90;;;;;;5046552;28;20666;-75
2023/03/22 07:30:46;;;;;;;0.20;0.20;;;9.40;99.90;;;;;;5038999;28;20445;-75
2023/03/22 07:33:11;;;;;;;0.20;0.20;;;9.50;99.90;;;;;;5050054;28;20183;-75
2023/03/22 07:35:39;;;;;;;0.20;0.20;;;9.40;99.90;;;;;;5042447;28;20218;-75
2023/03/22 07:38:05;;;;;;;0.20;0.20;;;9.50;99.90;;;;;;5044033;28;20546;-75
2023/03/22 07:40:31;;;;;;;0.20;0.20;;;9.50;99.90;;;;;;5041950;28;23113;-75
2023/03/22 07:42:57;;;;;;;0.20;0.20;;;9.40;99.90;;;;;;5045284;28;20484;-76
2023/03/22 07:45:24;;;;;;;0.20;0.20;;;9.50;99.90;;;;;;5044344;28;20445;-76
2023/03/22 07:47:50;;;;;;;0.20;0.20;;;9.50;99.90;;;;;;5047473;28;20460;-79
2023/03/22 07:50:16;;;;;;;0.20;0.20;;;9.50;99.90;;;;;;5046828;28;20456;-75
2023/03/22 07:52:44;;;;;;;0.20;0.20;;;9.50;99.90;;;;;;5047487;28;20213;-76
2023/03/22 07:55:12;;;;;;;0.20;0.20;;;9.50;99.90;;;;;;5041908;28;20445;-75
2023/03/22 07:57:38;;;;;;;0.20;0.20;;;9.60;99.90;;;;;;5034155;28;20458;-76
2023/03/22 08:00:05;;;;;;;0.20;0.20;;;9.60;99.90;;;;;;5055136;28;20449;-76
2023/03/22 08:02:31;;;;;;;0.20;0.20;;;9.70;99.90;;;;;;5037902;28;20268;-76
2023/03/22 08:04:56;;;;;;;0.20;0.20;;;9.70;99.90;;;;;;5045403;28;20440;-75
2023/03/22 08:07:24;;;;;;;0.20;0.20;;;9.60;99.90;;;;;;5042330;28;20798;-75
2023/03/22 08:09:50;;;;;;;0.20;0.20;;;9.70;99.90;;;;;;5043364;28;20184;-76
2023/03/22 08:12:15;;;;;;;0.20;0.20;;;9.70;99.90;;;;;;5039414;28;20446;-76
2023/03/22 08:14:41;;;;;;;0.20;0.20;;;9.70;99.90;;;;;;5043238;28;20563;-74
2023/03/22 08:17:07;;;;;;;0.20;0.20;;;9.80;99.90;;;;;;5041350;28;20453;-75
2023/03/22 08:19:33;;;;;;;0.20;0.20;;;9.90;99.90;;;;;;5047769;28;20222;-75
2023/03/22 08:21:59;;;;;;;0.20;0.20;;;10.00;99.90;;;;;;5037472;28;21950;-74
2023/03/22 08:24:25;;;;;;;0.20;0.20;;;10.00;99.90;;;;;;5042581;28;20457;-76
2023/03/22 08:26:51;;;;;;;0.10;0.10;;;10.10;99.90;;;;;;5038679;28;20241;-76
2023/03/22 08:29:17;;;;;;;0.20;0.20;;;10.10;99.90;;;;;;5042742;28;20449;-76
2023/03/22 08:31:43;;;;;;;0.20;0.20;;;10.20;99.90;;;;;;5045740;28;20503;-76
2023/03/22 08:34:09;;;;;;;0.13;0.13;;;10.20;99.90;;;;;;5046322;28;20449;-76
2023/03/22 08:36:35;;;;;;;0.20;0.20;;;10.40;99.90;;;;;;5044010;28;20477;-76
2023/03/22 08:39:02;;;;;;;0.20;0.20;;;10.50;99.90;;;;;;5044701;28;20700;-76
2023/03/22 08:41:28;;;;;;;0.20;0.20;;;10.50;99.90;;;;;;5042150;28;20433;-77
2023/03/22 08:43:53;;;;;;;0.20;0.20;;;10.60;99.90;;;;;;5045158;28;20485;-77
2023/03/22 08:46:19;;;;;;;0.20;0.20;;;10.70;99.90;;;;;;5041169;28;20254;-76
2023/03/22 08:48:49;;;;;;;0.10;0.10;;;10.80;99.90;;;;;;5041626;28;20197;-76
2023/03/22 08:51:17;;;;;;;0.10;0.10;;;10.80;99.90;;;;;;5040230;28;20218;-77
2023/03/22 08:53:42;;;;;;;0.10;0.10;;;10.70;99.90;;;;;;5049675;28;20515;-77
2023/03/22 08:56:08;;;;;;;0.20;0.20;;;10.70;99.90;;;;;;5037846;28;20958;-77
2023/03/22 08:58:35;;;;;;;0.20;0.20;;;10.70;99.90;;;;;;5044134;28;20186;-76
2023/03/22 09:01:00;;;;;;;0.20;0.20;;;10.70;99.90;;;;;;5052781;28;20428;-76
2023/03/22 09:03:26;;;;;;;0.20;0.20;;;10.80;99.90;;;;;;5048794;28;20485;-74
2023/03/22 09:05:58;;;;;;;0.10;0.10;;;10.90;99.90;;;;;;5036922;28;20803;-75
2023/03/22 09:08:24;;;;;;;0.10;0.10;;;11.00;99.90;;;;;;5043404;28;20198;-77
2023/03/22 09:10:50;;;;;;;0.10;0.10;;;11.40;99.90;;;;;;5038822;28;20530;-76
2023/03/22 09:13:16;;;;;;;0.10;0.10;;;11.60;99.90;;;;;;5048366;28;20492;-77
2023/03/22 09:15:45;;;;;;;0.10;0.10;;;11.90;99.90;;;;;;5048778;28;20255;-76
2023/03/22 09:18:11;;;;;;;0.20;0.20;;;12.10;99.90;;;;;;5049375;28;20876;-75
2023/03/22 09:20:37;;;;;;;0.20;0.20;;;11.90;99.90;;;;;;5039526;28;20441;-78
2023/03/22 09:23:03;;;;;;;0.10;0.10;;;11.70;99.90;;;;;;5034642;28;20490;-75
2023/03/22 09:25:29;;;;;;;0.10;0.10;;;11.60;99.90;;;;;;5039933;28;20179;-73
2023/03/22 09:27:55;;;;;;;0.20;0.20;;;11.50;99.90;;;;;;5045857;28;20457;-75
2023/03/22 09:30:20;;;;;;;0.10;0.10;;;11.50;99.90;;;;;;5046434;28;21024;-75
2023/03/22 09:32:46;;;;;;;0.10;0.10;;;11.60;99.90;;;;;;5047352;28;20197;-72
2023/03/22 09:35:11;;;;;;;0.10;0.10;;;11.80;99.90;;;;;;5049523;28;20669;-72
2023/03/22 09:37:37;;;;;;;0.10;0.10;;;12.00;99.90;;;;;;5044755;28;20191;-81
2023/03/22 09:40:05;;;;;;;0.20;0.20;;;12.00;99.90;;;;;;5041874;28;20182;-81
2023/03/22 09:42:49;;;;;;;0.10;0.10;;;11.90;99.90;;;;;;5045319;28;20473;-80
2023/03/22 09:45:20;;;;;;;0.10;0.10;;;11.80;99.90;;;;;;5034795;28;20445;-80
2023/03/22 09:47:49;;;;;;;0.20;0.20;;;11.80;99.90;;;;;;5042828;28;20442;-80
2023/03/22 09:50:20;;;;;;;0.20;0.20;;;11.80;99.90;;;;;;5045089;28;20616;-80
2023/03/22 09:52:46;;;;;;;0.10;0.10;;;11.90;99.90;;;;;;5044415;28;21096;-80
2023/03/22 09:55:42;;;;;;;0.20;0.20;;;11.90;99.90;;;;;;5044899;28;20450;-80
2023/03/22 09:58:13;;;;;;;0.10;0.10;;;12.00;99.90;;;;;;5046753;28;20201;-79
2023/03/22 10:00:50;;;;;;;0.10;0.10;;;12.00;99.90;;;;;;5045391;28;20471;-78
2023/03/22 10:03:33;;;;;;;0.10;0.10;;;12.10;99.90;;;;;;5045286;28;20476;-79
2023/03/22 10:06:08;;;;;;;0.10;0.10;;;12.10;99.90;;;;;;5046709;28;20441;-79
2023/03/22 10:09:09;;;;;;;0.10;0.10;;;12.10;99.90;;;;;;5042139;28;20467;-79
2023/03/22 10:11:49;;;;;;;0.10;0.10;;;12.10;99.90;;;;;;5043277;28;20444;-79
2023/03/22 10:14:29;;;;;;;0.10;0.10;;;12.20;99.90;;;;;;5045620;28;20441;-79
2023/03/22 10:16:57;;;;;;;0.20;0.20;;;12.20;99.90;;;;;;5044811;28;20960;-79
2023/03/22 10:19:30;;;;;;;0.10;0.10;;;12.30;99.90;;;;;;5042222;28;20487;-79
2023/03/22 10:21:58;;;;;;;0.10;0.10;;;12.30;99.90;;;;;;5041711;28;21867;-80
2023/03/22 10:24:30;;;;;;;0.10;0.10;;;12.40;99.90;;;;;;5049668;28;20445;-79
2023/03/22 10:26:56;;;;;;;0.10;0.10;;;12.40;99.90;;;;;;5041215;28;20440;-79
2023/03/22 10:29:34;;;;;;;0.10;0.10;;;12.30;99.90;;;;;;5037265;28;20446;-79
2023/03/22 10:32:14;;;;;;;0.10;0.10;;;12.30;99.90;;;;;;5043402;28;20277;-80
2023/03/22 10:34:39;;;;;;;0.10;0.10;;;12.20;99.90;;;;;;5046941;28;20494;-79
2023/03/22 10:37:09;;;;;;;0.20;0.20;;;12.30;99.90;;;;;;5041778;28;20790;-80
2023/03/22 10:39:37;;;;;;;0.10;0.10;;;12.20;99.90;;;;;;5046470;28;20738;-79
2023/03/22 10:42:12;;;;;;;0.10;0.10;;;12.20;99.90;;;;;;5046781;28;20464;-79
2023/03/22 10:44:51;;;;;;;0.20;0.20;;;12.20;99.90;;;;;;5033072;28;20453;-80
2023/03/22 10:47:22;;;;;;;0.10;0.10;;;12.20;99.90;;;;;;5040304;28;20829;-79
2023/03/22 10:49:53;;;;;;;0.20;0.20;;;12.20;99.90;;;;;;5046881;28;20437;-79
2023/03/22 10:52:29;;;;;;;0.10;0.10;;;12.30;99.90;;;;;;5043158;28;20476;-79
2023/03/22 10:54:56;;;;;;;0.10;0.10;;;12.50;99.90;;;;;;5051222;28;20432;-78
2023/03/22 10:57:24;;;;;;;0.10;0.10;;;12.50;99.90;;;;;;5040822;28;20450;-79
2023/03/22 10:59:54;;;;;;;0.10;0.10;;;12.60;99.90;;;;;;5047551;28;20467;-80
2023/03/22 11:02:28;;;;;;;0.20;0.20;;;12.50;99.90;;;;;;5044221;28;20484;-79
2023/03/22 11:04:59;;;;;;;0.10;0.10;;;12.50;99.90;;;;;;5041953;28;20462;-79
2023/03/22 11:07:34;;;;;;;0.10;0.10;;;12.50;99.90;;;;;;5046396;28;20471;-80
2023/03/22 11:10:09;;;;;;;0.10;0.10;;;12.50;99.90;;;;;;5040247;28;20438;-79
2023/03/22 11:12:37;;;;;;;0.10;0.10;;;12.50;99.90;;;;;;5045662;28;20451;-79
2023/03/22 11:15:03;;;;;;;0.10;0.10;;;12.50;99.90;;;;;;5048159;28;20990;-79
2023/03/22 11:17:30;;;;;;;0.10;0.10;;;12.50;99.90;;;;;;5046612;28;20452;-78
2023/03/22 11:20:00;;;;;;;0.10;0.10;;;12.70;99.90;;;;;;5046264;28;20441;-80
2023/03/22 11:22:34;;;;;;;0.10;0.10;;;12.70;99.90;;;;;;5045449;28;21073;-79
2023/03/22 11:25:01;;;;;;;0.10;0.10;;;12.80;99.90;;;;;;5046466;28;20468;-79
2023/03/22 11:27:30;;;;;;;0.10;0.10;;;12.70;99.90;;;;;;5038191;28;20529;-80
2023/03/22 11:30:09;;;;;;;0.10;0.10;;;;;;;;;;5038702;28;20441;-79
2023/03/22 11:32:36;;;;;;;0.10;0.10;;;;;;;;;;5044527;28;21009;-79
2023/03/22 11:35:14;;;;;;;0.10;0.10;;;;;;;;;;5041390;28;20499;-80
2023/03/22 11:37:45;;;;;;;0.10;0.10;;;13.70;99.90;;;;;;5049315;28;20440;-79
2023/03/22 11:40:19;;;;;;;0.10;0.10;;;13.90;99.90;;;;;;5043692;28;20453;-80
2023/03/22 11:42:46;;;;;;;0.10;0.10;;;13.90;99.90;;;;;;5043706;28;20491;-80
2023/03/22 11:45:22;;;;;;;0.10;0.10;;;14.00;99.90;;;;;;5055705;28;20491;-79
2023/03/22 11:47:48;;;;;;;0.10;0.10;;;13.80;99.90;;;;;;5039508;28;20445;-80
2023/03/22 11:50:27;;;;;;;0.10;0.10;;;13.70;99.90;;;;;;5038021;28;20446;-80
2023/03/22 11:52:53;;;;;;;0.10;0.10;;;13.60;99.90;;;;;;5047669;28;20206;-80
2023/03/22 11:55:19;;;;;;;0.10;0.10;;;13.30;99.90;;;;;;5051928;28;20840;-79
2023/03/22 11:57:45;;;;;;;0.10;0.10;;;13.20;99.90;;;;;;5041924;28;20202;-79
2023/03/22 12:00:24;;;;;;;0.10;0.10;;;13.10;99.90;;;;;;5044016;28;20484;-80
2023/03/22 12:02:58;;;;;;;0.10;0.10;;;13.00;99.90;;;;;;5051933;28;20476;-80
2023/03/22 12:05:28;;;;;;;0.10;0.10;;;13.20;99.90;;;;;;5060334;28;20452;-79
2023/03/22 12:08:08;;;;;;;0.20;0.20;;;13.10;99.90;;;;;;5042830;28;20449;-79
2023/03/22 12:10:42;;;;;;;0.10;0.10;;;13.40;99.90;;;;;;5049898;28;20455;-79
2023/03/22 12:13:25;;;;;;;0.10;0.10;;;13.10;99.90;;;;;;5042406;28;20443;-80
2023/03/22 12:15:56;;;;;;;0.10;0.10;;;13.20;99.90;;;;;;5047728;28;20445;-80
2023/03/22 12:18:29;;;;;;;0.10;0.10;;;13.00;99.90;;;;;;5045262;28;21955;-81
2023/03/22 12:20:57;;;;;;;0.10;0.10;;;12.90;99.90;;;;;;5042587;28;20456;-79
2023/03/22 12:23:29;;;;;;;0.10;0.10;;;12.90;99.90;;;;;;5046032;28;20508;-82
2023/03/22 12:26:13;;;;;;;0.10;0.10;;;12.90;99.90;;;;;;5045402;28;20438;-79
2023/03/22 12:28:59;;;;;;;0.10;0.10;;;12.90;99.90;;;;;;5048732;28;20480;-80
2023/03/22 12:31:50;;;;;;;0.10;0.10;;;12.80;99.90;;;;;;5043613;28;20437;-79
2023/03/22 12:34:18;;;;;;;0.10;0.10;;;12.90;99.90;;;;;;5046205;28;20437;-80
2023/03/22 12:36:54;;;;;;;0.10;0.10;;;12.80;99.90;;;;;;5041293;28;20867;-80
2023/03/22 12:39:34;;;;;;;0.20;0.20;;;12.60;99.90;;;;;;5049755;28;20449;-81
2023/03/22 12:42:20;;;;;;;0.10;0.10;;;12.40;99.90;;;;;;5046619;28;20547;-80
2023/03/22 12:44:49;;;;;;;0.10;0.10;;;12.20;99.90;;;;;;5045122;28;20936;-80
2023/03/22 12:47:21;;;;;;;0.10;0.10;;;12.00;99.90;;;;;;5041401;28;20650;-80
2023/03/22 12:50:04;;;;;;;0.10;0.10;;;12.10;99.90;;;;;;5030941;28;20817;-78
2023/03/22 12:52:38;;;;;;;0.10;0.10;;;11.90;99.90;;;;;;5048336;28;20500;-81
2023/03/22 12:55:05;;;;;;;0.10;0.10;;;11.90;99.90;;;;;;5046207;28;20773;-80
2023/03/22 12:57:31;;;;;;;0.10;0.10;;;11.90;99.90;;;;;;5047639;28;20429;-81
2023/03/22 13:00:08;;;;;;;0.20;0.20;;;11.70;99.90;;;;;;5040659;28;20453;-79
2023/03/22 13:02:34;;;;;;;0.20;0.20;;;11.60;99.90;;;;;;5034376;28;20499;-82
2023/03/22 13:05:05;;;;;;;0.20;0.20;;;11.60;99.90;;;;;;5039301;28;20446;-81
2023/03/22 13:07:48;;;;;;;0.10;0.10;;;11.40;99.90;;;;;;5045231;28;20458;-81
2023/03/22 13:10:35;;;;;;;0.10;0.10;;;11.50;99.90;;;;;;5037344;28;20476;-80